This is the latest recevied weather packets stored in our database for station/object W3AJR. If no packets are shown the sender has not sent any weather packets the latest 10 day(s).
| Time | Temp. | Humidity | Pressure | Rain* | Wind** | Luminosity | Snow |
|---|---|---|---|---|---|---|---|
| 1777757524 | 14.44° C | 42% | 1010.9 hPa | 0 mm | - | 130 W/m² | - |
| 1777757223 | 14.44° C | 42% | 1011.1 hPa | 0 mm | - | 100 W/m² | - |
| 1777756921 | 14.44° C | 42% | 1011.3 hPa | 0 mm | - | 108 W/m² | - |
| 1777756616 | 14.44° C | 44% | 1011 hPa | 0 mm | - | 101 W/m² | - |
| 1777756314 | 14.44° C | 42% | 1011.2 hPa | 0 mm | - | 120 W/m² | - |
| 1777756010 | 14.44° C | 42% | 1011.3 hPa | 0 mm | - | 109 W/m² | - |
| 1777755707 | 14.44° C | 42% | 1011.1 hPa | 0 mm | - | 106 W/m² | - |
| 1777755404 | 15° C | 42% | 1011 hPa | 0 mm | - | 113 W/m² | - |
| 1777755101 | 15° C | 40% | 1010.9 hPa | 0 mm | - | 149 W/m² | - |
| 1777754798 | 15.56° C | 40% | 1010.9 hPa | 0 mm | - | 193 W/m² | - |
| 1777754496 | 15.56° C | 40% | 1011 hPa | 0 mm | - | 269 W/m² | - |
| 1777754192 | 15° C | 43% | 1011 hPa | 0 mm | - | 484 W/m² | - |
| 1777753891 | 15° C | 40% | 1011.1 hPa | 0 mm | - | 299 W/m² | - |
| 1777753585 | 15° C | 41% | 1011.2 hPa | 0 mm | - | 210 W/m² | - |
| 1777753283 | 15° C | 43% | 1011 hPa | 0 mm | - | 199 W/m² | - |
| 1777752980 | 15.56° C | 43% | 1011.2 hPa | 0 mm | - | 195 W/m² | - |
| 1777752676 | 15.56° C | 41% | 1011.4 hPa | 0 mm | - | 204 W/m² | - |
| 1777752372 | 15.56° C | 39% | 1011.2 hPa | 0 mm | - | 317 W/m² | - |
| 1777752070 | 16.11° C | 38% | 1011.3 hPa | 0 mm | - | 699 W/m² | - |
| 1777751768 | 16.11° C | 39% | 1011.2 hPa | 0 mm | - | 688 W/m² | - |
| 1777751463 | 16.11° C | 39% | 1011 hPa | 0 mm | - | 777 W/m² | - |
| 1777751161 | 15.56° C | 43% | 1011.3 hPa | 0 mm | - | 343 W/m² | - |
| 1777750856 | 15.56° C | 41% | 1011.4 hPa | 0 mm | - | 390 W/m² | - |
| 1777750554 | 15.56° C | 42% | 1011.4 hPa | 0 mm | - | 451 W/m² | - |
| 1777750250 | 16.67° C | 39% | 1011.5 hPa | 0 mm | - | 451 W/m² | - |
* Rain latest hour (hover to see other rain measurements)
** Current wind speed in m/s (hover to see current wind gust speed)